sensor_id;sensor_type;location;lat;lon;timestamp;temperature;humidity
13470;DHT22;6807;48.682;9.032;2022-09-09T00:01:51;13.80;99.90
13470;DHT22;6807;48.682;9.032;2022-09-09T00:11:58;14.10;99.90
13470;DHT22;6807;48.682;9.032;2022-09-09T00:24:44;14.30;99.90
13470;DHT22;6807;48.682;9.032;2022-09-09T00:32:17;14.40;99.90
13470;DHT22;6807;48.682;9.032;2022-09-09T00:44:51;14.10;99.90
13470;DHT22;6807;48.682;9.032;2022-09-09T00:55:07;14.10;99.90
13470;DHT22;6807;48.682;9.032;2022-09-09T01:00:21;14.00;99.90
13470;DHT22;6807;48.682;9.032;2022-09-09T01:05:50;13.80;99.90
13470;DHT22;6807;48.682;9.032;2022-09-09T01:23:44;13.70;99.90
13470;DHT22;6807;48.682;9.032;2022-09-09T01:31:21;13.40;99.90
13470;DHT22;6807;48.682;9.032;2022-09-09T01:46:11;13.50;99.90
13470;DHT22;6807;48.682;9.032;2022-09-09T01:48:39;13.40;99.90
13470;DHT22;6807;48.682;9.032;2022-09-09T01:53:36;13.20;99.90
13470;DHT22;6807;48.682;9.032;2022-09-09T01:56:13;13.20;99.90
13470;DHT22;6807;48.682;9.032;2022-09-09T02:06:27;13.10;99.90
13470;DHT22;6807;48.682;9.032;2022-09-09T02:08:58;13.10;99.90
13470;DHT22;6807;48.682;9.032;2022-09-09T02:16:34;12.80;99.90
13470;DHT22;6807;48.682;9.032;2022-09-09T02:34:03;12.30;99.90
13470;DHT22;6807;48.682;9.032;2022-09-09T02:46:48;12.00;99.90
13470;DHT22;6807;48.682;9.032;2022-09-09T02:51:57;12.00;99.90
13470;DHT22;6807;48.682;9.032;2022-09-09T02:57:02;11.90;99.90
13470;DHT22;6807;48.682;9.032;2022-09-09T04:28:26;12.90;99.90
13470;DHT22;6807;48.682;9.032;2022-09-09T07:06:34;16.70;99.90
13470;DHT22;6807;48.682;9.032;2022-09-09T07:09:03;16.60;99.90
13470;DHT22;6807;48.682;9.032;2022-09-09T07:33:46;20.80;99.90
13470;DHT22;6807;48.682;9.032;2022-09-09T08:00:57;22.80;99.90
13470;DHT22;6807;48.682;9.032;2022-09-09T08:03:24;23.30;99.90
13470;DHT22;6807;48.682;9.032;2022-09-09T08:05:52;23.60;99.90
13470;DHT22;6807;48.682;9.032;2022-09-09T08:08:19;23.80;99.90
13470;DHT22;6807;48.682;9.032;2022-09-09T08:10:46;24.10;99.90
13470;DHT22;6807;48.682;9.032;2022-09-09T08:13:14;23.70;99.90
13470;DHT22;6807;48.682;9.032;2022-09-09T08:15:41;24.20;99.90
13470;DHT22;6807;48.682;9.032;2022-09-09T08:18:08;24.60;99.90
13470;DHT22;6807;48.682;9.032;2022-09-09T08:20:36;24.40;99.90
13470;DHT22;6807;48.682;9.032;2022-09-09T08:23:03;24.80;99.90
13470;DHT22;6807;48.682;9.032;2022-09-09T08:25:31;25.40;99.90
13470;DHT22;6807;48.682;9.032;2022-09-09T08:28:00;24.50;99.90
13470;DHT22;6807;48.682;9.032;2022-09-09T08:30:28;24.60;99.90
13470;DHT22;6807;48.682;9.032;2022-09-09T08:32:55;24.90;99.90
13470;DHT22;6807;48.682;9.032;2022-09-09T08:35:22;24.90;99.90
13470;DHT22;6807;48.682;9.032;2022-09-09T08:37:53;25.20;99.90
13470;DHT22;6807;48.682;9.032;2022-09-09T08:40:30;24.70;99.90
13470;DHT22;6807;48.682;9.032;2022-09-09T08:43:00;25.20;99.90
13470;DHT22;6807;48.682;9.032;2022-09-09T08:45:34;24.80;99.90
13470;DHT22;6807;48.682;9.032;2022-09-09T08:48:18;25.70;99.90
13470;DHT22;6807;48.682;9.032;2022-09-09T08:50:49;25.50;99.90
13470;DHT22;6807;48.682;9.032;2022-09-09T08:53:19;25.70;99.90
13470;DHT22;6807;48.682;9.032;2022-09-09T08:55:48;24.20;99.90
13470;DHT22;6807;48.682;9.032;2022-09-09T08:58:17;23.20;99.90
13470;DHT22;6807;48.682;9.032;2022-09-09T09:01:09;22.60;99.90
13470;DHT22;6807;48.682;9.032;2022-09-09T09:03:47;23.00;99.90
13470;DHT22;6807;48.682;9.032;2022-09-09T09:06:25;21.80;99.90
13470;DHT22;6807;48.682;9.032;2022-09-09T09:08:59;20.20;99.90
13470;DHT22;6807;48.682;9.032;2022-09-09T09:11:34;19.00;99.90
13470;DHT22;6807;48.682;9.032;2022-09-09T09:14:04;18.00;99.90
13470;DHT22;6807;48.682;9.032;2022-09-09T09:16:38;17.50;99.90
13470;DHT22;6807;48.682;9.032;2022-09-09T09:19:08;17.10;99.90
13470;DHT22;6807;48.682;9.032;2022-09-09T09:21:42;16.70;99.90
13470;DHT22;6807;48.682;9.032;2022-09-09T09:24:16;16.50;99.90
13470;DHT22;6807;48.682;9.032;2022-09-09T09:26:43;18.50;99.90
13470;DHT22;6807;48.682;9.032;2022-09-09T09:29:13;21.10;99.90
13470;DHT22;6807;48.682;9.032;2022-09-09T09:31:45;22.00;99.90
13470;DHT22;6807;48.682;9.032;2022-09-09T09:34:13;21.50;99.90
13470;DHT22;6807;48.682;9.032;2022-09-09T09:36:43;19.80;99.90
13470;DHT22;6807;48.682;9.032;2022-09-09T09:39:23;19.30;99.90
13470;DHT22;6807;48.682;9.032;2022-09-09T09:41:51;21.30;99.90
13470;DHT22;6807;48.682;9.032;2022-09-09T09:44:23;22.80;99.90
13470;DHT22;6807;48.682;9.032;2022-09-09T09:46:52;23.70;99.90
13470;DHT22;6807;48.682;9.032;2022-09-09T09:49:19;25.10;99.90
13470;DHT22;6807;48.682;9.032;2022-09-09T09:51:46;26.60;99.90
13470;DHT22;6807;48.682;9.032;2022-09-09T09:54:18;27.20;99.90
13470;DHT22;6807;48.682;9.032;2022-09-09T09:56:48;26.80;99.90
13470;DHT22;6807;48.682;9.032;2022-09-09T09:59:32;26.80;99.90
13470;DHT22;6807;48.682;9.032;2022-09-09T10:02:17;27.70;99.90
13470;DHT22;6807;48.682;9.032;2022-09-09T10:04:46;27.90;99.90
13470;DHT22;6807;48.682;9.032;2022-09-09T10:07:18;28.20;99.90
13470;DHT22;6807;48.682;9.032;2022-09-09T10:09:45;28.00;99.90
13470;DHT22;6807;48.682;9.032;2022-09-09T10:12:22;26.00;99.90
13470;DHT22;6807;48.682;9.032;2022-09-09T10:14:58;24.70;99.90
13470;DHT22;6807;48.682;9.032;2022-09-09T10:17:36;22.60;99.90
13470;DHT22;6807;48.682;9.032;2022-09-09T10:20:21;20.40;99.90
13470;DHT22;6807;48.682;9.032;2022-09-09T10:22:54;22.60;99.90
13470;DHT22;6807;48.682;9.032;2022-09-09T10:25:33;22.60;99.90
13470;DHT22;6807;48.682;9.032;2022-09-09T10:28:29;21.60;99.90
13470;DHT22;6807;48.682;9.032;2022-09-09T10:31:10;20.50;99.90
13470;DHT22;6807;48.682;9.032;2022-09-09T10:33:47;20.40;99.90
13470;DHT22;6807;48.682;9.032;2022-09-09T10:36:19;20.20;99.90
13470;DHT22;6807;48.682;9.032;2022-09-09T10:38:49;20.50;99.90
13470;DHT22;6807;48.682;9.032;2022-09-09T10:41:21;21.80;99.90
13470;DHT22;6807;48.682;9.032;2022-09-09T10:44:06;23.90;99.90
13470;DHT22;6807;48.682;9.032;2022-09-09T10:46:57;24.20;99.90
13470;DHT22;6807;48.682;9.032;2022-09-09T10:49:50;22.80;99.90
13470;DHT22;6807;48.682;9.032;2022-09-09T10:52:23;22.10;99.90
13470;DHT22;6807;48.682;9.032;2022-09-09T10:54:58;21.50;99.90
13470;DHT22;6807;48.682;9.032;2022-09-09T10:57:29;24.10;99.90
13470;DHT22;6807;48.682;9.032;2022-09-09T11:00:02;25.70;99.90
13470;DHT22;6807;48.682;9.032;2022-09-09T11:02:31;24.70;99.90
13470;DHT22;6807;48.682;9.032;2022-09-09T11:05:03;23.20;99.90
13470;DHT22;6807;48.682;9.032;2022-09-09T11:07:36;22.70;99.90
13470;DHT22;6807;48.682;9.032;2022-09-09T11:10:17;21.60;99.90
13470;DHT22;6807;48.682;9.032;2022-09-09T11:12:47;20.20;99.90
13470;DHT22;6807;48.682;9.032;2022-09-09T11:15:20;19.30;99.90
13470;DHT22;6807;48.682;9.032;2022-09-09T11:17:52;19.40;99.90
13470;DHT22;6807;48.682;9.032;2022-09-09T11:20:22;19.00;99.90
13470;DHT22;6807;48.682;9.032;2022-09-09T11:22:52;18.60;99.90
13470;DHT22;6807;48.682;9.032;2022-09-09T11:25:25;19.10;99.90
13470;DHT22;6807;48.682;9.032;2022-09-09T11:28:08;18.70;99.90
13470;DHT22;6807;48.682;9.032;2022-09-09T11:30:47;18.60;99.90
13470;DHT22;6807;48.682;9.032;2022-09-09T11:33:42;18.20;99.90
13470;DHT22;6807;48.682;9.032;2022-09-09T11:36:44;17.90;99.90
13470;DHT22;6807;48.682;9.032;2022-09-09T11:39:30;17.80;99.90
13470;DHT22;6807;48.682;9.032;2022-09-09T11:42:06;17.60;99.90
13470;DHT22;6807;48.682;9.032;2022-09-09T11:44:36;17.60;99.90
13470;DHT22;6807;48.682;9.032;2022-09-09T11:47:03;17.80;99.90
13470;DHT22;6807;48.682;9.032;2022-09-09T11:49:40;17.70;99.90
13470;DHT22;6807;48.682;9.032;2022-09-09T11:52:18;17.80;99.90
13470;DHT22;6807;48.682;9.032;2022-09-09T11:54:49;18.50;99.90
13470;DHT22;6807;48.682;9.032;2022-09-09T11:57:24;18.80;99.90
13470;DHT22;6807;48.682;9.032;2022-09-09T11:59:52;20.10;99.90
13470;DHT22;6807;48.682;9.032;2022-09-09T12:02:23;20.40;99.90
13470;DHT22;6807;48.682;9.032;2022-09-09T12:04:57;20.30;99.90
13470;DHT22;6807;48.682;9.032;2022-09-09T12:07:32;21.00;99.90
13470;DHT22;6807;48.682;9.032;2022-09-09T12:10:03;21.20;99.90
13470;DHT22;6807;48.682;9.032;2022-09-09T12:12:35;21.60;99.90
13470;DHT22;6807;48.682;9.032;2022-09-09T12:15:24;23.80;99.90
13470;DHT22;6807;48.682;9.032;2022-09-09T12:17:56;23.90;99.90
13470;DHT22;6807;48.682;9.032;2022-09-09T12:20:30;23.20;99.90
13470;DHT22;6807;48.682;9.032;2022-09-09T12:23:16;24.50;99.90
13470;DHT22;6807;48.682;9.032;2022-09-09T12:25:58;25.70;99.90
13470;DHT22;6807;48.682;9.032;2022-09-09T12:28:44;25.60;99.90
13470;DHT22;6807;48.682;9.032;2022-09-09T12:31:20;25.30;99.90
13470;DHT22;6807;48.682;9.032;2022-09-09T12:33:49;24.20;99.90
13470;DHT22;6807;48.682;9.032;2022-09-09T12:36:19;22.40;99.90
13470;DHT22;6807;48.682;9.032;2022-09-09T12:38:49;21.00;99.90
13470;DHT22;6807;48.682;9.032;2022-09-09T12:43:47;20.10;99.90
13470;DHT22;6807;48.682;9.032;2022-09-09T12:46:22;19.80;99.90
13470;DHT22;6807;48.682;9.032;2022-09-09T12:48:53;20.70;99.90
13470;DHT22;6807;48.682;9.032;2022-09-09T12:51:25;21.10;99.90
13470;DHT22;6807;48.682;9.032;2022-09-09T12:53:55;20.50;99.90
13470;DHT22;6807;48.682;9.032;2022-09-09T12:56:25;20.30;99.90
13470;DHT22;6807;48.682;9.032;2022-09-09T12:58:56;18.60;99.90
13470;DHT22;6807;48.682;9.032;2022-09-09T13:01:26;20.90;99.90
13470;DHT22;6807;48.682;9.032;2022-09-09T13:03:54;20.80;99.90
13470;DHT22;6807;48.682;9.032;2022-09-09T13:06:24;21.80;99.90
13470;DHT22;6807;48.682;9.032;2022-09-09T13:08:52;23.00;99.90
13470;DHT22;6807;48.682;9.032;2022-09-09T13:11:24;24.60;99.90
13470;DHT22;6807;48.682;9.032;2022-09-09T13:13:56;24.80;99.90
13470;DHT22;6807;48.682;9.032;2022-09-09T13:16:26;25.00;99.90
13470;DHT22;6807;48.682;9.032;2022-09-09T13:18:56;25.30;99.90
13470;DHT22;6807;48.682;9.032;2022-09-09T13:21:33;25.50;99.90
13470;DHT22;6807;48.682;9.032;2022-09-09T13:24:00;25.10;99.90
13470;DHT22;6807;48.682;9.032;2022-09-09T13:26:30;26.30;99.90
13470;DHT22;6807;48.682;9.032;2022-09-09T13:29:14;26.10;99.90
13470;DHT22;6807;48.682;9.032;2022-09-09T13:31:43;24.50;99.90
13470;DHT22;6807;48.682;9.032;2022-09-09T13:34:14;22.70;99.90
13470;DHT22;6807;48.682;9.032;2022-09-09T13:36:59;24.10;99.90
13470;DHT22;6807;48.682;9.032;2022-09-09T13:39:31;25.70;99.90
13470;DHT22;6807;48.682;9.032;2022-09-09T13:42:00;25.80;99.90
13470;DHT22;6807;48.682;9.032;2022-09-09T13:44:30;25.20;99.90
13470;DHT22;6807;48.682;9.032;2022-09-09T13:47:03;25.40;99.90
13470;DHT22;6807;48.682;9.032;2022-09-09T13:49:30;24.50;99.90
13470;DHT22;6807;48.682;9.032;2022-09-09T13:52:10;24.20;99.90
13470;DHT22;6807;48.682;9.032;2022-09-09T13:54:39;24.70;99.90
13470;DHT22;6807;48.682;9.032;2022-09-09T13:57:15;24.10;99.90
13470;DHT22;6807;48.682;9.032;2022-09-09T13:59:44;24.70;99.90
13470;DHT22;6807;48.682;9.032;2022-09-09T14:02:13;24.70;99.90
13470;DHT22;6807;48.682;9.032;2022-09-09T14:04:48;24.70;99.90
13470;DHT22;6807;48.682;9.032;2022-09-09T14:07:17;25.00;99.90
13470;DHT22;6807;48.682;9.032;2022-09-09T14:09:45;24.80;99.90
13470;DHT22;6807;48.682;9.032;2022-09-09T14:12:20;25.10;99.90
13470;DHT22;6807;48.682;9.032;2022-09-09T14:14:52;25.70;99.90
13470;DHT22;6807;48.682;9.032;2022-09-09T14:17:19;26.20;99.90
13470;DHT22;6807;48.682;9.032;2022-09-09T14:19:47;25.50;99.90
13470;DHT22;6807;48.682;9.032;2022-09-09T14:22:14;24.30;99.90
13470;DHT22;6807;48.682;9.032;2022-09-09T14:24:46;24.50;99.90
13470;DHT22;6807;48.682;9.032;2022-09-09T14:27:21;24.00;99.90
13470;DHT22;6807;48.682;9.032;2022-09-09T14:29:58;24.00;99.90
13470;DHT22;6807;48.682;9.032;2022-09-09T14:32:26;22.80;99.90
13470;DHT22;6807;48.682;9.032;2022-09-09T14:34:53;22.40;99.90
13470;DHT22;6807;48.682;9.032;2022-09-09T14:37:20;22.40;99.90
13470;DHT22;6807;48.682;9.032;2022-09-09T14:39:47;23.20;99.90
13470;DHT22;6807;48.682;9.032;2022-09-09T14:42:16;23.60;99.90
13470;DHT22;6807;48.682;9.032;2022-09-09T14:44:44;24.00;99.90
13470;DHT22;6807;48.682;9.032;2022-09-09T14:47:11;24.30;99.90
13470;DHT22;6807;48.682;9.032;2022-09-09T14:49:38;24.30;99.90
13470;DHT22;6807;48.682;9.032;2022-09-09T14:52:05;23.50;99.90
13470;DHT22;6807;48.682;9.032;2022-09-09T14:54:31;23.90;99.90
13470;DHT22;6807;48.682;9.032;2022-09-09T14:56:59;23.90;99.90
13470;DHT22;6807;48.682;9.032;2022-09-09T14:59:27;23.70;99.90
13470;DHT22;6807;48.682;9.032;2022-09-09T15:01:57;22.70;99.90
13470;DHT22;6807;48.682;9.032;2022-09-09T15:04:24;21.90;99.90
13470;DHT22;6807;48.682;9.032;2022-09-09T15:06:51;21.80;99.90
13470;DHT22;6807;48.682;9.032;2022-09-09T15:09:18;23.10;99.90
13470;DHT22;6807;48.682;9.032;2022-09-09T15:11:45;23.90;99.90
13470;DHT22;6807;48.682;9.032;2022-09-09T15:14:12;23.70;99.90
13470;DHT22;6807;48.682;9.032;2022-09-09T15:16:39;23.40;99.90
13470;DHT22;6807;48.682;9.032;2022-09-09T15:19:09;23.60;99.90
13470;DHT22;6807;48.682;9.032;2022-09-09T15:21:36;23.50;99.90
13470;DHT22;6807;48.682;9.032;2022-09-09T15:24:04;24.30;99.90
13470;DHT22;6807;48.682;9.032;2022-09-09T15:26:32;24.70;99.90
13470;DHT22;6807;48.682;9.032;2022-09-09T15:28:59;25.30;99.90
13470;DHT22;6807;48.682;9.032;2022-09-09T15:31:28;25.40;99.90
13470;DHT22;6807;48.682;9.032;2022-09-09T15:33:57;24.90;99.90
13470;DHT22;6807;48.682;9.032;2022-09-09T15:36:30;23.60;99.90
13470;DHT22;6807;48.682;9.032;2022-09-09T15:38:58;22.40;99.90
13470;DHT22;6807;48.682;9.032;2022-09-09T15:41:26;21.70;99.90
13470;DHT22;6807;48.682;9.032;2022-09-09T15:43:55;21.00;99.90
13470;DHT22;6807;48.682;9.032;2022-09-09T15:46:28;20.60;99.90
13470;DHT22;6807;48.682;9.032;2022-09-09T15:48:58;20.10;99.90
13470;DHT22;6807;48.682;9.032;2022-09-09T15:51:27;20.10;99.90
13470;DHT22;6807;48.682;9.032;2022-09-09T15:53:54;19.90;99.90
13470;DHT22;6807;48.682;9.032;2022-09-09T15:56:22;19.90;99.90
13470;DHT22;6807;48.682;9.032;2022-09-09T15:58:50;19.90;99.90
13470;DHT22;6807;48.682;9.032;2022-09-09T16:01:18;20.00;99.90
13470;DHT22;6807;48.682;9.032;2022-09-09T16:03:45;19.70;99.90
13470;DHT22;6807;48.682;9.032;2022-09-09T16:06:13;19.60;99.90
13470;DHT22;6807;48.682;9.032;2022-09-09T16:08:44;19.40;99.90
13470;DHT22;6807;48.682;9.032;2022-09-09T16:11:13;19.30;99.90
13470;DHT22;6807;48.682;9.032;2022-09-09T16:13:41;19.30;99.90
13470;DHT22;6807;48.682;9.032;2022-09-09T16:16:10;19.30;99.90
13470;DHT22;6807;48.682;9.032;2022-09-09T16:18:38;19.60;99.90
13470;DHT22;6807;48.682;9.032;2022-09-09T16:21:06;19.50;99.90
13470;DHT22;6807;48.682;9.032;2022-09-09T16:23:35;19.80;99.90
13470;DHT22;6807;48.682;9.032;2022-09-09T16:26:03;19.80;99.90
13470;DHT22;6807;48.682;9.032;2022-09-09T16:28:30;19.20;99.90
13470;DHT22;6807;48.682;9.032;2022-09-09T16:30:57;19.00;99.90
13470;DHT22;6807;48.682;9.032;2022-09-09T16:33:24;19.10;99.90
13470;DHT22;6807;48.682;9.032;2022-09-09T16:35:52;19.40;99.90
13470;DHT22;6807;48.682;9.032;2022-09-09T16:38:19;18.70;99.90
13470;DHT22;6807;48.682;9.032;2022-09-09T16:40:45;19.80;99.90
13470;DHT22;6807;48.682;9.032;2022-09-09T16:43:16;18.40;99.90
13470;DHT22;6807;48.682;9.032;2022-09-09T16:45:45;18.30;99.90
13470;DHT22;6807;48.682;9.032;2022-09-09T16:48:12;18.40;99.90
13470;DHT22;6807;48.682;9.032;2022-09-09T16:50:39;18.90;99.90
13470;DHT22;6807;48.682;9.032;2022-09-09T16:53:06;18.60;99.90
13470;DHT22;6807;48.682;9.032;2022-09-09T16:55:38;18.10;99.90
13470;DHT22;6807;48.682;9.032;2022-09-09T16:58:06;18.70;99.90
13470;DHT22;6807;48.682;9.032;2022-09-09T17:00:36;17.80;99.90
13470;DHT22;6807;48.682;9.032;2022-09-09T17:03:03;17.90;99.90
13470;DHT22;6807;48.682;9.032;2022-09-09T17:05:30;18.20;99.90
13470;DHT22;6807;48.682;9.032;2022-09-09T17:07:58;17.60;99.90
13470;DHT22;6807;48.682;9.032;2022-09-09T17:10:25;17.40;99.90
13470;DHT22;6807;48.682;9.032;2022-09-09T17:12:52;17.30;99.90
13470;DHT22;6807;48.682;9.032;2022-09-09T17:15:20;17.30;99.90
13470;DHT22;6807;48.682;9.032;2022-09-09T17:17:50;17.70;99.90
13470;DHT22;6807;48.682;9.032;2022-09-09T17:20:19;17.10;99.90
13470;DHT22;6807;48.682;9.032;2022-09-09T17:22:47;17.10;99.90
13470;DHT22;6807;48.682;9.032;2022-09-09T17:25:15;17.30;99.90
13470;DHT22;6807;48.682;9.032;2022-09-09T17:27:42;16.90;99.90
13470;DHT22;6807;48.682;9.032;2022-09-09T17:30:10;17.70;99.90
13470;DHT22;6807;48.682;9.032;2022-09-09T17:32:38;16.70;99.90
13470;DHT22;6807;48.682;9.032;2022-09-09T17:35:07;17.10;99.90
13470;DHT22;6807;48.682;9.032;2022-09-09T17:37:34;16.50;99.90
13470;DHT22;6807;48.682;9.032;2022-09-09T17:40:02;16.50;99.90
13470;DHT22;6807;48.682;9.032;2022-09-09T17:42:29;16.40;99.90
13470;DHT22;6807;48.682;9.032;2022-09-09T17:44:56;16.30;99.90
13470;DHT22;6807;48.682;9.032;2022-09-09T17:47:23;16.60;99.90
13470;DHT22;6807;48.682;9.032;2022-09-09T17:49:51;16.80;99.90
13470;DHT22;6807;48.682;9.032;2022-09-09T17:52:19;17.30;99.90
13470;DHT22;6807;48.682;9.032;2022-09-09T17:54:47;16.20;99.90
13470;DHT22;6807;48.682;9.032;2022-09-09T17:57:14;16.20;99.90
13470;DHT22;6807;48.682;9.032;2022-09-09T17:59:43;18.20;99.90
13470;DHT22;6807;48.682;9.032;2022-09-09T18:02:11;17.90;99.90
13470;DHT22;6807;48.682;9.032;2022-09-09T18:04:38;18.10;99.90
13470;DHT22;6807;48.682;9.032;2022-09-09T18:07:04;18.00;99.90
13470;DHT22;6807;48.682;9.032;2022-09-09T18:09:33;16.90;99.90
13470;DHT22;6807;48.682;9.032;2022-09-09T18:12:01;17.00;99.90
13470;DHT22;6807;48.682;9.032;2022-09-09T18:14:30;15.90;99.90
13470;DHT22;6807;48.682;9.032;2022-09-09T18:16:57;16.80;99.90
13470;DHT22;6807;48.682;9.032;2022-09-09T18:19:28;15.90;99.90
13470;DHT22;6807;48.682;9.032;2022-09-09T18:21:55;15.80;99.90
13470;DHT22;6807;48.682;9.032;2022-09-09T18:24:22;15.80;99.90
13470;DHT22;6807;48.682;9.032;2022-09-09T18:26:51;16.90;99.90
13470;DHT22;6807;48.682;9.032;2022-09-09T18:29:19;17.90;99.90
13470;DHT22;6807;48.682;9.032;2022-09-09T18:31:48;17.60;99.90
13470;DHT22;6807;48.682;9.032;2022-09-09T18:34:17;16.00;99.90
13470;DHT22;6807;48.682;9.032;2022-09-09T18:36:47;16.80;99.90
13470;DHT22;6807;48.682;9.032;2022-09-09T18:39:17;16.70;99.90
13470;DHT22;6807;48.682;9.032;2022-09-09T18:41:45;16.10;99.90
13470;DHT22;6807;48.682;9.032;2022-09-09T18:44:23;16.00;99.90
13470;DHT22;6807;48.682;9.032;2022-09-09T18:46:53;16.00;99.90
13470;DHT22;6807;48.682;9.032;2022-09-09T18:49:23;16.00;99.90
13470;DHT22;6807;48.682;9.032;2022-09-09T18:51:55;16.10;99.90
13470;DHT22;6807;48.682;9.032;2022-09-09T18:54:30;16.10;99.90
13470;DHT22;6807;48.682;9.032;2022-09-09T18:56:59;16.10;99.90
13470;DHT22;6807;48.682;9.032;2022-09-09T18:59:33;16.10;99.90
13470;DHT22;6807;48.682;9.032;2022-09-09T19:02:00;16.40;99.90
13470;DHT22;6807;48.682;9.032;2022-09-09T19:04:30;16.10;99.90
13470;DHT22;6807;48.682;9.032;2022-09-09T19:06:58;16.00;99.90
13470;DHT22;6807;48.682;9.032;2022-09-09T19:09:27;16.00;99.90
13470;DHT22;6807;48.682;9.032;2022-09-09T19:11:57;15.90;99.90
13470;DHT22;6807;48.682;9.032;2022-09-09T19:14:24;15.90;99.90
13470;DHT22;6807;48.682;9.032;2022-09-09T19:17:19;15.80;99.90
13470;DHT22;6807;48.682;9.032;2022-09-09T19:20:02;15.60;99.90
13470;DHT22;6807;48.682;9.032;2022-09-09T19:22:42;15.50;99.90
13470;DHT22;6807;48.682;9.032;2022-09-09T19:25:25;15.60;99.90
13470;DHT22;6807;48.682;9.032;2022-09-09T19:27:52;15.50;99.90
13470;DHT22;6807;48.682;9.032;2022-09-09T19:30:25;16.70;99.90
13470;DHT22;6807;48.682;9.032;2022-09-09T19:32:54;15.50;99.90
13470;DHT22;6807;48.682;9.032;2022-09-09T19:35:23;15.20;99.90
13470;DHT22;6807;48.682;9.032;2022-09-09T19:37:50;15.10;99.90
13470;DHT22;6807;48.682;9.032;2022-09-09T19:40:20;15.70;99.90
13470;DHT22;6807;48.682;9.032;2022-09-09T19:42:47;14.80;99.90
13470;DHT22;6807;48.682;9.032;2022-09-09T19:45:30;14.80;99.90
13470;DHT22;6807;48.682;9.032;2022-09-09T19:48:00;14.80;99.90
13470;DHT22;6807;48.682;9.032;2022-09-09T19:50:27;14.70;99.90
13470;DHT22;6807;48.682;9.032;2022-09-09T19:53:11;14.70;99.90
13470;DHT22;6807;48.682;9.032;2022-09-09T19:55:39;14.60;99.90
13470;DHT22;6807;48.682;9.032;2022-09-09T19:58:11;14.60;99.90
13470;DHT22;6807;48.682;9.032;2022-09-09T20:00:46;14.50;99.90
13470;DHT22;6807;48.682;9.032;2022-09-09T20:03:15;14.50;99.90
13470;DHT22;6807;48.682;9.032;2022-09-09T20:05:42;15.60;99.90
13470;DHT22;6807;48.682;9.032;2022-09-09T20:08:29;14.50;99.90
13470;DHT22;6807;48.682;9.032;2022-09-09T20:10:56;14.50;99.90
13470;DHT22;6807;48.682;9.032;2022-09-09T20:13:27;14.40;99.90
13470;DHT22;6807;48.682;9.032;2022-09-09T20:16:00;15.00;99.90
13470;DHT22;6807;48.682;9.032;2022-09-09T20:18:30;14.40;99.90
13470;DHT22;6807;48.682;9.032;2022-09-09T20:20:59;14.40;99.90
13470;DHT22;6807;48.682;9.032;2022-09-09T20:23:29;14.40;99.90
13470;DHT22;6807;48.682;9.032;2022-09-09T20:26:02;15.50;99.90
13470;DHT22;6807;48.682;9.032;2022-09-09T20:28:32;14.50;99.90
13470;DHT22;6807;48.682;9.032;2022-09-09T20:31:04;14.50;99.90
13470;DHT22;6807;48.682;9.032;2022-09-09T20:34:04;14.50;99.90
13470;DHT22;6807;48.682;9.032;2022-09-09T20:36:47;14.40;99.90
13470;DHT22;6807;48.682;9.032;2022-09-09T20:39:17;14.90;99.90
13470;DHT22;6807;48.682;9.032;2022-09-09T20:41:53;14.50;99.90
13470;DHT22;6807;48.682;9.032;2022-09-09T20:44:41;14.40;99.90
13470;DHT22;6807;48.682;9.032;2022-09-09T20:47:10;14.80;99.90
13470;DHT22;6807;48.682;9.032;2022-09-09T20:50:05;14.00;99.90
13470;DHT22;6807;48.682;9.032;2022-09-09T20:55:01;13.90;99.90
13470;DHT22;6807;48.682;9.032;2022-09-09T23:36:14;13.20;99.90
13470;DHT22;6807;48.682;9.032;2022-09-09T23:41:12;13.30;99.90
13470;DHT22;6807;48.682;9.032;2022-09-09T23:46:11;13.20;99.90
